createdAt,value
2023-05-22T00:00:39.196Z,35.60
2023-05-22T00:03:29.554Z,35.60
2023-05-22T00:06:18.569Z,35.60
2023-05-22T00:09:07.594Z,35.60
2023-05-22T00:11:56.182Z,35.60
2023-05-22T00:14:44.695Z,35.60
2023-05-22T00:17:34.984Z,35.60
2023-05-22T00:20:23.624Z,35.70
2023-05-22T00:23:13.825Z,35.70
2023-05-22T00:26:04.442Z,35.70
2023-05-22T00:28:52.905Z,35.70
2023-05-22T00:31:41.422Z,35.70
2023-05-22T00:34:31.276Z,35.70
2023-05-22T00:37:20.956Z,35.70
2023-05-22T00:40:11.045Z,35.70
2023-05-22T00:42:59.611Z,35.70
2023-05-22T00:45:48.567Z,35.80
2023-05-22T00:48:37.061Z,35.80
2023-05-22T00:51:27.363Z,35.80
2023-05-22T00:54:16.615Z,35.80
2023-05-22T00:57:06.004Z,35.80
2023-05-22T00:59:54.930Z,35.80
2023-05-22T01:02:44.528Z,35.80
2023-05-22T01:05:33.217Z,35.80
2023-05-22T01:08:23.294Z,35.80
2023-05-22T01:11:16.594Z,35.80
2023-05-22T01:14:11.028Z,35.90
2023-05-22T01:17:08.901Z,35.90
2023-05-22T01:20:10.323Z,35.90
2023-05-22T01:23:30.531Z,35.90
2023-05-22T01:26:54.171Z,35.90
2023-05-22T01:29:49.577Z,35.90
2023-05-22T01:32:40.082Z,36.00
2023-05-22T01:35:29.972Z,36.00
2023-05-22T01:38:19.454Z,36.00
2023-05-22T01:41:08.648Z,36.00
2023-05-22T01:43:57.817Z,36.10
2023-05-22T01:46:46.416Z,36.10
2023-05-22T01:49:36.915Z,36.10
2023-05-22T01:52:35.265Z,36.10
2023-05-22T01:55:30.246Z,36.10
2023-05-22T01:58:40.731Z,36.10
2023-05-22T02:01:32.526Z,36.10
2023-05-22T02:04:23.867Z,36.20
2023-05-22T02:07:15.146Z,36.10
2023-05-22T02:10:04.583Z,36.20
2023-05-22T02:12:53.397Z,36.20
2023-05-22T02:15:42.309Z,36.20
2023-05-22T02:18:31.224Z,36.30
2023-05-22T02:21:19.823Z,36.30
2023-05-22T02:24:10.069Z,36.40
2023-05-22T02:26:59.369Z,36.40
2023-05-22T02:29:47.817Z,36.40
2023-05-22T02:32:36.617Z,36.50
2023-05-22T02:35:25.333Z,36.50
2023-05-22T02:38:14.158Z,36.50
2023-05-22T02:41:04.103Z,36.50
2023-05-22T02:43:52.756Z,36.60
2023-05-22T02:46:41.309Z,36.60
2023-05-22T02:49:29.843Z,36.60
2023-05-22T02:52:18.331Z,36.60
2023-05-22T02:55:08.346Z,36.70
2023-05-22T02:57:58.505Z,36.70
2023-05-22T03:00:47.059Z,36.70
2023-05-22T03:03:35.811Z,36.70
2023-05-22T03:06:25.551Z,36.70
2023-05-22T03:09:14.055Z,36.80
2023-05-22T03:12:02.528Z,36.70
2023-05-22T03:14:52.363Z,36.80
2023-05-22T03:17:40.812Z,36.80
2023-05-22T03:20:30.027Z,36.80
2023-05-22T03:23:20.932Z,36.80
2023-05-22T03:26:09.542Z,36.90
2023-05-22T03:28:58.376Z,36.90
2023-05-22T03:31:48.431Z,36.90
2023-05-22T03:34:36.899Z,36.90
2023-05-22T03:37:25.540Z,36.90
2023-05-22T03:40:14.272Z,36.90
2023-05-22T03:43:02.942Z,36.90
2023-05-22T03:45:51.403Z,36.90
2023-05-22T03:48:41.506Z,37.00
2023-05-22T03:51:29.920Z,37.00
2023-05-22T03:54:18.463Z,37.00
2023-05-22T03:57:07.495Z,36.90
2023-05-22T03:59:56.096Z,36.90
2023-05-22T04:02:46.906Z,36.90
2023-05-22T04:05:36.896Z,36.90
2023-05-22T04:08:25.548Z,36.80
2023-05-22T04:11:15.835Z,36.80
2023-05-22T04:14:05.192Z,36.80
2023-05-22T04:16:53.873Z,36.70
2023-05-22T04:19:42.369Z,36.70
2023-05-22T04:22:33.411Z,36.60
2023-05-22T04:25:22.108Z,36.60
2023-05-22T04:28:10.619Z,36.60
2023-05-22T04:30:59.144Z,36.60
2023-05-22T04:33:48.459Z,36.60
2023-05-22T04:36:38.997Z,36.60
2023-05-22T04:39:28.863Z,36.60
2023-05-22T04:42:17.560Z,36.90
2023-05-22T04:45:06.773Z,37.00
2023-05-22T04:47:55.310Z,37.30
2023-05-22T04:50:46.425Z,37.50
2023-05-22T04:53:34.964Z,37.70
2023-05-22T04:56:35.271Z,37.60
2023-05-22T04:59:26.690Z,37.60
2023-05-22T05:02:15.629Z,37.60
2023-05-22T05:05:04.483Z,37.60
2023-05-22T05:07:53.376Z,37.40
2023-05-22T05:10:41.998Z,37.40
2023-05-22T05:13:32.132Z,37.30
2023-05-22T05:16:20.735Z,37.10
2023-05-22T05:19:09.520Z,36.90
2023-05-22T05:21:58.153Z,37.00
2023-05-22T05:24:46.756Z,37.00
2023-05-22T05:27:35.435Z,37.00
2023-05-22T05:30:25.445Z,36.70
2023-05-22T05:33:13.924Z,36.80
2023-05-22T05:36:02.631Z,36.90
2023-05-22T05:38:51.264Z,36.90
2023-05-22T05:41:39.841Z,36.90
2023-05-22T05:44:28.356Z,36.90
2023-05-22T05:47:18.422Z,36.80
2023-05-22T05:50:07.693Z,36.70
2023-05-22T05:52:56.358Z,36.70
2023-05-22T05:55:44.967Z,36.80
2023-05-22T05:58:33.585Z,36.50
2023-05-22T06:01:24.413Z,36.40
2023-05-22T06:04:14.409Z,36.40
2023-05-22T06:07:02.986Z,36.30
2023-05-22T06:09:51.743Z,36.10
2023-05-22T06:12:40.240Z,36.20
2023-05-22T06:15:28.826Z,36.10
2023-05-22T06:18:17.626Z,36.20
2023-05-22T06:21:08.187Z,36.00
2023-05-22T06:23:57.653Z,36.00
2023-05-22T06:26:46.146Z,36.00
2023-05-22T06:29:34.861Z,35.80
2023-05-22T06:32:24.836Z,35.70
2023-05-22T06:35:13.443Z,35.70
2023-05-22T06:38:03.329Z,35.60
2023-05-22T06:40:51.861Z,35.50
2023-05-22T06:43:40.485Z,35.40
2023-05-22T06:46:29.266Z,35.30
2023-05-22T06:49:18.011Z,35.30
2023-05-22T06:52:06.986Z,35.20
2023-05-22T06:55:04.393Z,35.10
2023-05-22T06:57:53.004Z,35.10
2023-05-22T07:00:41.636Z,35.10
2023-05-22T07:03:30.370Z,35.00
2023-05-22T07:06:19.341Z,34.80
2023-05-22T07:09:08.094Z,34.70
2023-05-22T07:11:58.058Z,34.50
2023-05-22T07:14:46.553Z,34.40
2023-05-22T07:17:35.278Z,34.10
2023-05-22T07:20:25.735Z,33.80
2023-05-22T07:23:14.469Z,33.60
2023-05-22T07:26:02.942Z,33.40
2023-05-22T07:28:52.841Z,33.20
2023-05-22T07:31:42.535Z,33.30
2023-05-22T07:34:34.470Z,33.20
2023-05-22T07:37:23.424Z,33.20
2023-05-22T07:40:12.637Z,33.10
2023-05-22T07:43:01.237Z,33.10
2023-05-22T07:45:51.262Z,33.10
2023-05-22T07:48:39.755Z,33.00
2023-05-22T07:51:28.330Z,32.90
2023-05-22T07:54:18.289Z,32.80
2023-05-22T07:57:08.165Z,32.60
2023-05-22T07:59:56.799Z,32.50
2023-05-22T08:02:47.078Z,32.40
2023-05-22T08:05:35.772Z,32.20
2023-05-22T08:08:24.220Z,32.20
2023-05-22T08:11:12.879Z,32.90
2023-05-22T08:14:01.616Z,32.80
2023-05-22T08:16:50.296Z,32.70
2023-05-22T08:19:40.275Z,32.50
2023-05-22T08:22:31.425Z,32.20
2023-05-22T08:25:19.970Z,31.90
2023-05-22T08:28:08.573Z,31.80
2023-05-22T08:30:57.082Z,31.80
2023-05-22T08:33:46.051Z,31.60
2023-05-22T08:36:35.956Z,31.50
2023-05-22T08:39:24.607Z,31.30
2023-05-22T08:42:13.128Z,31.50
2023-05-22T08:45:02.067Z,31.60
2023-05-22T08:47:54.001Z,31.50
2023-05-22T08:50:43.869Z,31.40
2023-05-22T08:53:36.717Z,31.40
2023-05-22T08:56:29.153Z,31.30
2023-05-22T08:59:18.858Z,31.30
2023-05-22T09:02:08.324Z,31.00
2023-05-22T09:04:57.471Z,30.70
2023-05-22T09:07:46.175Z,30.80
2023-05-22T09:10:36.129Z,30.50
2023-05-22T09:13:29.202Z,30.40
2023-05-22T09:16:17.933Z,30.70
2023-05-22T09:19:06.553Z,30.60
2023-05-22T09:22:03.723Z,30.30
2023-05-22T09:24:52.565Z,30.00
2023-05-22T09:27:46.914Z,29.70
2023-05-22T09:30:36.523Z,29.40
2023-05-22T09:33:25.270Z,29.30
2023-05-22T09:36:13.979Z,29.30
2023-05-22T09:39:03.161Z,29.10
2023-05-22T09:41:52.389Z,29.30
2023-05-22T09:44:44.354Z,29.20
2023-05-22T09:47:33.304Z,29.30
2023-05-22T09:50:22.171Z,29.40
2023-05-22T09:53:12.242Z,29.40
2023-05-22T09:56:01.828Z,29.30
2023-05-22T09:58:52.711Z,29.00
2023-05-22T10:01:43.691Z,28.90
2023-05-22T10:04:34.871Z,28.80
2023-05-22T10:07:26.319Z,28.70
2023-05-22T10:10:18.793Z,28.40
2023-05-22T10:13:08.006Z,28.40
2023-05-22T10:15:57.311Z,28.20
2023-05-22T10:18:49.249Z,28.30
2023-05-22T10:21:38.164Z,28.00
2023-05-22T10:24:27.209Z,27.80
2023-05-22T10:27:16.550Z,27.50
2023-05-22T10:30:17.607Z,27.40
2023-05-22T10:33:13.191Z,27.70
2023-05-22T10:36:06.998Z,27.80
2023-05-22T10:39:09.466Z,27.50
2023-05-22T10:41:58.622Z,27.20
2023-05-22T10:44:49.599Z,27.30
2023-05-22T10:47:39.083Z,27.10
2023-05-22T10:50:28.889Z,27.30
2023-05-22T10:53:34.114Z,27.40
2023-05-22T10:56:25.332Z,27.50
2023-05-22T10:59:14.628Z,27.20
2023-05-22T11:02:03.352Z,26.90
2023-05-22T11:04:52.189Z,26.90
2023-05-22T11:07:42.800Z,26.90
2023-05-22T11:10:54.865Z,26.60
2023-05-22T11:13:43.922Z,26.30
2023-05-22T11:16:34.633Z,26.20
2023-05-22T11:19:24.327Z,26.40
2023-05-22T11:22:15.280Z,26.60
2023-05-22T11:25:09.088Z,26.50
2023-05-22T11:27:59.818Z,26.50
2023-05-22T11:30:49.288Z,26.60
2023-05-22T11:33:38.145Z,26.70
2023-05-22T11:36:29.287Z,26.60
2023-05-22T11:39:18.148Z,26.80
2023-05-22T11:42:07.533Z,26.90
2023-05-22T11:44:58.190Z,26.90
2023-05-22T11:47:47.496Z,27.30
2023-05-22T11:50:42.224Z,27.30
2023-05-22T11:53:33.539Z,27.10
2023-05-22T11:56:23.454Z,26.90
2023-05-22T11:59:12.862Z,26.70
2023-05-22T12:02:03.494Z,26.60
2023-05-22T12:04:56.086Z,26.50
2023-05-22T12:07:45.211Z,26.40
2023-05-22T12:10:34.183Z,26.30
2023-05-22T12:13:28.280Z,26.10
2023-05-22T12:16:22.130Z,26.10
2023-05-22T12:19:13.822Z,26.00
2023-05-22T12:22:05.997Z,26.00
2023-05-22T12:24:55.831Z,26.10
2023-05-22T12:27:46.275Z,26.10
2023-05-22T12:30:42.913Z,26.10
2023-05-22T12:33:32.640Z,26.10
2023-05-22T12:36:23.273Z,26.00
2023-05-22T12:39:12.846Z,25.90
2023-05-22T12:42:02.128Z,25.80
2023-05-22T12:44:52.763Z,25.60
2023-05-22T12:47:41.518Z,25.30
2023-05-22T12:50:30.989Z,25.20
2023-05-22T12:53:21.458Z,25.20
2023-05-22T12:56:09.942Z,25.20
2023-05-22T12:58:58.889Z,25.10
2023-05-22T13:01:47.480Z,24.90
2023-05-22T13:04:36.000Z,24.80
2023-05-22T13:07:24.473Z,25.00
2023-05-22T13:10:14.628Z,25.00
2023-05-22T13:13:03.260Z,24.90
2023-05-22T13:15:52.145Z,24.80
2023-05-22T13:18:40.723Z,24.90
2023-05-22T13:21:29.249Z,25.00
2023-05-22T13:24:18.024Z,24.70
2023-05-22T13:27:08.101Z,25.00
2023-05-22T13:29:56.651Z,24.90
2023-05-22T13:32:45.255Z,24.80
2023-05-22T13:35:33.809Z,25.00
2023-05-22T13:38:22.403Z,24.90
2023-05-22T13:41:10.878Z,24.90
2023-05-22T13:44:00.914Z,25.00
2023-05-22T13:46:49.488Z,25.00
2023-05-22T13:49:37.937Z,25.10
2023-05-22T13:52:26.477Z,25.10
2023-05-22T13:55:15.135Z,25.00
2023-05-22T13:58:04.145Z,25.10
2023-05-22T14:00:54.067Z,25.00
2023-05-22T14:03:42.669Z,24.70
2023-05-22T14:06:31.199Z,24.90
2023-05-22T14:09:19.852Z,25.30
2023-05-22T14:12:08.960Z,25.40
2023-05-22T14:14:57.589Z,25.20
2023-05-22T14:17:48.665Z,25.20
2023-05-22T14:20:37.377Z,25.10
2023-05-22T14:23:25.949Z,25.30
2023-05-22T14:26:14.908Z,25.50
2023-05-22T14:29:04.013Z,25.70
2023-05-22T14:31:53.024Z,25.80
2023-05-22T14:34:42.955Z,25.90
2023-05-22T14:37:31.378Z,25.90
2023-05-22T14:40:19.978Z,25.80
2023-05-22T14:43:08.816Z,26.00
2023-05-22T14:45:58.249Z,26.00
2023-05-22T14:48:46.962Z,26.10
2023-05-22T14:51:37.086Z,26.30
2023-05-22T14:54:25.795Z,26.10
2023-05-22T14:57:14.516Z,25.90
2023-05-22T15:00:03.358Z,26.10
2023-05-22T15:02:51.953Z,26.30
2023-05-22T15:05:40.760Z,26.30
2023-05-22T15:08:31.116Z,26.30
2023-05-22T15:11:19.570Z,26.40
2023-05-22T15:14:08.125Z,26.40
2023-05-22T15:16:56.566Z,26.50
2023-05-22T15:19:45.507Z,26.50
2023-05-22T15:22:34.037Z,26.40
2023-05-22T15:25:23.974Z,26.60
2023-05-22T15:28:12.454Z,26.60
2023-05-22T15:31:00.947Z,26.70
2023-05-22T15:33:49.546Z,26.80
2023-05-22T15:36:38.177Z,26.80
2023-05-22T15:39:26.601Z,26.80
2023-05-22T15:42:16.715Z,26.70
2023-05-22T15:45:06.228Z,26.80
2023-05-22T15:47:54.959Z,27.00
2023-05-22T15:50:44.011Z,27.10
2023-05-22T15:53:32.655Z,27.10
2023-05-22T15:56:21.602Z,26.90
2023-05-22T15:59:11.432Z,27.00
2023-05-22T16:01:59.897Z,27.20
2023-05-22T16:04:48.517Z,27.40
2023-05-22T16:07:37.075Z,27.40
2023-05-22T16:10:25.702Z,27.60
2023-05-22T16:13:14.478Z,27.80
2023-05-22T16:16:06.078Z,27.80
2023-05-22T16:18:54.740Z,27.80
2023-05-22T16:21:43.276Z,27.70
2023-05-22T16:24:31.818Z,27.70
2023-05-22T16:27:20.436Z,27.60
2023-05-22T16:30:11.243Z,27.60
2023-05-22T16:33:01.309Z,27.60
2023-05-22T16:35:50.072Z,27.90
2023-05-22T16:38:38.527Z,28.10
2023-05-22T16:41:27.683Z,28.00
2023-05-22T16:44:16.284Z,28.10
2023-05-22T16:47:05.110Z,28.10
2023-05-22T16:49:55.578Z,28.00
2023-05-22T16:52:44.089Z,28.10
2023-05-22T16:55:32.788Z,28.20
2023-05-22T16:58:21.885Z,28.00
2023-05-22T17:01:10.744Z,28.20
2023-05-22T17:03:59.705Z,28.20
2023-05-22T17:06:49.992Z,28.20
2023-05-22T17:09:38.708Z,28.10
2023-05-22T17:12:27.239Z,28.10
2023-05-22T17:15:16.390Z,28.20
2023-05-22T17:18:05.512Z,28.30
2023-05-22T17:20:55.912Z,27.90
2023-05-22T17:23:45.937Z,28.30
2023-05-22T17:26:34.441Z,28.50
2023-05-22T17:29:22.990Z,28.50
2023-05-22T17:32:11.680Z,28.30
2023-05-22T17:35:00.347Z,27.80
2023-05-22T17:37:48.944Z,27.70
2023-05-22T17:40:44.653Z,28.10
2023-05-22T17:43:35.388Z,28.50
2023-05-22T17:46:24.028Z,28.30
2023-05-22T17:49:12.715Z,28.10
2023-05-22T17:52:02.469Z,28.60
2023-05-22T17:54:52.200Z,28.60
2023-05-22T17:57:42.724Z,28.50
2023-05-22T18:00:31.219Z,28.60
2023-05-22T18:03:20.944Z,28.10
2023-05-22T18:06:09.871Z,28.70
2023-05-22T18:08:58.603Z,28.70
2023-05-22T18:11:47.254Z,28.20
2023-05-22T18:14:37.164Z,28.70
2023-05-22T18:17:25.624Z,28.60
2023-05-22T18:20:16.834Z,28.10
2023-05-22T18:23:05.467Z,28.10
2023-05-22T18:25:53.971Z,27.80
2023-05-22T18:28:42.626Z,27.70
2023-05-22T18:31:32.930Z,28.00
2023-05-22T18:34:22.277Z,28.10
2023-05-22T18:37:11.057Z,28.20
2023-05-22T18:39:59.675Z,28.40
2023-05-22T18:42:48.970Z,28.70
2023-05-22T18:45:38.456Z,28.40
2023-05-22T18:48:28.527Z,28.30
2023-05-22T18:51:19.495Z,28.30
2023-05-22T18:54:08.549Z,28.70
2023-05-22T18:56:58.852Z,28.80
2023-05-22T18:59:47.727Z,28.80
2023-05-22T19:02:36.977Z,28.80
2023-05-22T19:05:27.371Z,29.00
2023-05-22T19:08:16.319Z,29.10
2023-05-22T19:11:05.212Z,29.10
2023-05-22T19:13:54.148Z,29.00
2023-05-22T19:16:43.853Z,29.30
2023-05-22T19:19:32.871Z,29.20
2023-05-22T19:22:24.619Z,29.40
2023-05-22T19:25:13.351Z,29.30
2023-05-22T19:28:01.895Z,29.40
2023-05-22T19:30:50.371Z,29.50
2023-05-22T19:33:39.516Z,29.70
2023-05-22T19:36:28.334Z,29.60
2023-05-22T19:39:18.514Z,29.50
2023-05-22T19:42:08.465Z,29.70
2023-05-22T19:44:57.010Z,29.70
2023-05-22T19:47:45.699Z,29.60
2023-05-22T19:50:35.563Z,29.50
2023-05-22T19:53:24.066Z,29.50
2023-05-22T19:56:14.064Z,29.60
2023-05-22T19:59:02.803Z,29.60
2023-05-22T20:01:53.396Z,29.50
2023-05-22T20:04:44.370Z,29.60
2023-05-22T20:07:33.131Z,29.70
2023-05-22T20:10:21.924Z,29.80
2023-05-22T20:13:12.113Z,29.80
2023-05-22T20:16:03.626Z,29.90
2023-05-22T20:21:42.564Z,29.90
2023-05-22T20:24:31.207Z,30.00
2023-05-22T20:27:21.156Z,30.10
2023-05-22T20:30:12.769Z,30.10
2023-05-22T20:33:01.905Z,30.20
2023-05-22T20:35:53.333Z,30.30
2023-05-22T20:38:43.954Z,30.40
2023-05-22T20:41:32.888Z,30.40
2023-05-22T20:44:23.943Z,30.40
2023-05-22T20:47:14.432Z,30.40
2023-05-22T20:50:03.090Z,30.50
2023-05-22T20:52:51.713Z,30.60
2023-05-22T20:55:40.558Z,30.70
2023-05-22T20:58:29.462Z,30.70
2023-05-22T21:01:18.098Z,30.80
2023-05-22T21:04:08.373Z,30.80
2023-05-22T21:06:57.019Z,30.90
2023-05-22T21:09:45.523Z,30.90
2023-05-22T21:12:34.096Z,31.10
2023-05-22T21:15:22.782Z,31.10
2023-05-22T21:18:12.147Z,31.20
2023-05-22T21:21:02.199Z,31.20
2023-05-22T21:23:51.482Z,31.20
2023-05-22T21:26:40.889Z,31.30
2023-05-22T21:29:29.466Z,31.30
2023-05-22T21:32:18.099Z,31.20
2023-05-22T21:35:07.572Z,31.30
2023-05-22T21:37:57.494Z,31.30
2023-05-22T21:40:46.167Z,31.40
2023-05-22T21:43:34.681Z,31.40
2023-05-22T21:46:23.641Z,31.50
2023-05-22T21:49:12.217Z,31.50
2023-05-22T21:52:00.861Z,31.50
2023-05-22T21:54:51.571Z,31.50
2023-05-22T21:57:40.859Z,31.50
2023-05-22T22:00:30.277Z,31.50
2023-05-22T22:03:19.719Z,31.60
2023-05-22T22:06:08.816Z,31.60
2023-05-22T22:08:59.820Z,31.60
2023-05-22T22:11:49.850Z,31.70
2023-05-22T22:14:38.569Z,31.70
2023-05-22T22:17:27.111Z,31.80
2023-05-22T22:20:16.032Z,31.80
2023-05-22T22:23:05.127Z,31.80
2023-05-22T22:25:53.768Z,31.90
2023-05-22T22:28:43.775Z,31.90
2023-05-22T22:31:32.306Z,32.00
2023-05-22T22:34:20.969Z,32.00
2023-05-22T22:37:09.476Z,32.00
2023-05-22T22:39:57.900Z,32.10
2023-05-22T22:42:46.434Z,32.10
2023-05-22T22:45:36.333Z,32.20
2023-05-22T22:48:24.844Z,32.30
2023-05-22T22:51:13.449Z,32.30
2023-05-22T22:54:02.119Z,32.30
2023-05-22T22:56:51.616Z,32.40
2023-05-22T22:59:40.086Z,32.40
2023-05-22T23:02:30.061Z,32.40
2023-05-22T23:05:20.456Z,32.40
2023-05-22T23:08:09.202Z,32.40
2023-05-22T23:10:58.028Z,32.50
2023-05-22T23:13:46.671Z,32.60
2023-05-22T23:16:37.149Z,32.60
2023-05-22T23:19:27.731Z,32.60
2023-05-22T23:22:16.519Z,32.60
2023-05-22T23:25:05.216Z,32.70
2023-05-22T23:27:53.709Z,32.70
2023-05-22T23:30:42.350Z,32.70
2023-05-22T23:33:30.849Z,32.70
2023-05-22T23:36:20.841Z,32.80
2023-05-22T23:39:09.611Z,32.80
2023-05-22T23:41:58.127Z,32.80
2023-05-22T23:44:46.601Z,32.90
2023-05-22T23:47:35.264Z,32.90
2023-05-22T23:50:23.774Z,32.90
2023-05-22T23:53:13.711Z,32.90
2023-05-22T23:56:02.256Z,32.90
2023-05-22T23:58:50.865Z,33.00
